KDBQ/DBQ METAR and TAF weather

Enter ICAO airport designator
Station Type Date Time Source
KDBQ METAR 2018/10/19 14:53 UTC NOAA

KDBQ 191453Z 22009KT 10SM BKN070 OVC085 08/06 A3001 RMK AO2 RAE44 SLP169 P0001 60004 T00830056 58020


Station Type Date Time Source
KDBQ Decoded METAR 2018/10/19 14:53 UTC NOAA

DUBUQUE REGIONAL AIRPORT, IA, United States (KDBQ) 42-24N 90-42W 326M
Oct 19, 2018 - 10:53 AM EDT / 2018.10.19 1453 UTC
Wind: from the SW (220 degrees) at 10 MPH (9 KT):0
Visibility: 10 mile(s):0
Sky conditions: overcast
Precipitation last hour: 0.01 inches
Temperature: 46.9 F (8.3 C)
Dew Point: 42.1 F (5.6 C)
Relative Humidity: 83%
Pressure (altimeter): 30.01 in. Hg (1016 hPa)
Pressure tendency: 0.06 inches (2.0 hPa) lower than three hours ago
ob: KDBQ 191453Z 22009KT 10SM BKN070 OVC085 08/06 A3001 RMK AO2 RAE44 SLP169 P0001 60004 T00830056 58020
cycle: 15

Station Type Date Time Source
KDBQ TAF 2018/10/19 12:36 UTC NOAA

TAF KDBQ 191135Z 1912/2012 19010KT 6SM -SHRA BR OVC090
FM191500 21012KT 6SM BR OVC070
TEMPO 1915/1918 4SM -SHRA BR OVC025
FM191900 23015G23KT P6SM OVC020
FM192200 26013KT P6SM BKN060
FM200000 28011KT P6SM SCT250


Example: see airport list